Time;durP1;ratioP1;P1;durP2;ratioP2;P2;SDS_P1;SDS_P2;PMS_P1;PMS_P2;Temp;Humidity;BMP_temperature;BMP_pressure;BME280_temperature;BME280_humidity;BME280_pressure;Samples;Min_cycle;Max_cycle;Signal;HPM_P1;HPM_P2
2023/03/14 00:00:57;;;;;;;19.27;10.77;;;10.50;80.00;;;;;;4974365;28;20202;-89
2023/03/14 00:03:22;;;;;;;12.20;10.33;;;10.60;79.80;;;;;;4974303;28;20202;-89
2023/03/14 00:05:48;;;;;;;24.90;11.27;;;10.50;80.40;;;;;;4974569;28;20170;-89
2023/03/14 00:08:14;;;;;;;29.03;11.17;;;10.50;80.30;;;;;;4957001;28;20178;-89
2023/03/14 00:10:39;;;;;;;19.23;11.83;;;10.50;79.90;;;;;;4956927;28;20187;-89
2023/03/14 00:13:05;;;;;;;27.63;11.60;;;10.50;80.20;;;;;;4957509;28;20281;-89
2023/03/14 00:15:33;;;;;;;26.20;12.27;;;10.30;80.30;;;;;;4956885;28;20182;-89
2023/03/14 00:17:59;;;;;;;27.23;11.93;;;10.30;80.70;;;;;;4956876;28;20179;-89
2023/03/14 00:20:24;;;;;;;23.47;11.43;;;10.30;80.90;;;;;;4974425;28;20214;-88
2023/03/14 00:22:50;;;;;;;21.37;11.13;;;10.30;81.00;;;;;;4957253;28;20179;-89
2023/03/14 00:25:16;;;;;;;18.73;9.57;;;10.30;80.60;;;;;;4956767;28;20755;-89
2023/03/14 00:27:41;;;;;;;22.27;11.23;;;10.30;80.80;;;;;;4956912;28;20182;-89
2023/03/14 00:30:07;;;;;;;26.13;11.67;;;10.30;81.20;;;;;;4957328;28;20187;-89
2023/03/14 00:32:33;;;;;;;21.03;10.80;;;10.10;81.60;;;;;;4974374;28;20203;-89
2023/03/14 00:35:00;;;;;;;26.60;10.60;;;10.00;82.30;;;;;;4956624;28;20202;-89
2023/03/14 00:37:26;;;;;;;26.10;10.47;;;10.00;82.50;;;;;;4974057;28;20174;-89
2023/03/14 00:39:52;;;;;;;25.00;10.23;;;10.00;82.90;;;;;;4973901;28;20296;-89
2023/03/14 00:42:20;;;;;;;21.30;10.57;;;10.00;83.50;;;;;;4973826;28;20222;-89
2023/03/14 00:44:46;;;;;;;22.90;11.47;;;9.90;83.70;;;;;;4956937;28;20198;-89
2023/03/14 00:47:12;;;;;;;17.63;10.37;;;9.90;83.80;;;;;;4974316;28;20182;-89
2023/03/14 00:49:37;;;;;;;17.43;10.00;;;9.80;84.10;;;;;;4973961;28;20179;-89
2023/03/14 00:52:03;;;;;;;21.07;10.37;;;9.90;84.00;;;;;;4956675;28;20187;-89
2023/03/14 00:54:28;;;;;;;26.10;10.53;;;10.00;83.90;;;;;;4974125;28;20254;-86
2023/03/14 00:56:54;;;;;;;19.40;10.40;;;9.90;83.80;;;;;;4974550;28;20175;-89
2023/03/14 00:59:20;;;;;;;24.60;11.37;;;10.00;83.50;;;;;;4956585;28;20681;-89
2023/03/14 01:01:45;;;;;;;21.77;10.20;;;10.00;83.70;;;;;;4973812;28;20199;-89
2023/03/14 01:04:11;;;;;;;16.03;10.90;;;10.10;83.60;;;;;;4973888;28;20191;-89
2023/03/14 01:06:37;;;;;;;21.23;11.27;;;10.10;83.70;;;;;;4956657;28;20229;-88
2023/03/14 01:09:03;;;;;;;22.30;11.10;;;10.10;83.60;;;;;;4957650;28;20261;-90
2023/03/14 01:11:34;;;;;;;19.80;11.10;;;10.20;83.40;;;;;;4977322;28;20262;-88
2023/03/14 01:14:00;;;;;;;18.37;10.17;;;10.20;83.50;;;;;;4977136;28;20249;-89
2023/03/14 01:16:28;;;;;;;19.77;10.80;;;10.30;83.10;;;;;;4977130;28;20270;-88
2023/03/14 01:18:53;;;;;;;21.73;10.93;;;10.40;82.70;;;;;;4959559;28;20187;-89
2023/03/14 01:21:28;;;;;;;32.33;10.93;;;10.50;82.70;;;;;;4977017;28;20182;-89
2023/03/14 01:23:56;;;;;;;14.73;10.00;;;10.50;82.70;;;;;;4960166;28;20206;-89
2023/03/14 01:26:24;;;;;;;15.90;10.33;;;10.50;83.00;;;;;;4959541;28;20187;-89
2023/03/14 01:28:52;;;;;;;19.67;11.07;;;10.60;82.70;;;;;;4959466;28;20183;-89
2023/03/14 01:31:18;;;;;;;17.97;10.97;;;10.70;82.40;;;;;;4959490;28;20637;-89
2023/03/14 01:33:43;;;;;;;19.23;11.00;;;10.60;82.60;;;;;;4959442;28;20200;-89
2023/03/14 01:36:10;;;;;;;14.10;10.77;;;10.70;82.40;;;;;;4959479;28;20185;-89
2023/03/14 01:38:37;;;;;;;23.10;10.43;;;10.70;82.20;;;;;;4976983;28;20197;-89
2023/03/14 01:41:03;;;;;;;25.83;12.87;;;10.60;82.40;;;;;;4976648;28;20207;-89
2023/03/14 01:43:29;;;;;;;22.87;10.93;;;10.70;82.10;;;;;;4976639;28;20209;-89
2023/03/14 01:46:03;;;;;;;18.47;10.20;;;10.60;82.50;;;;;;4959484;28;20174;-89
2023/03/14 01:48:35;;;;;;;17.37;10.80;;;10.70;82.40;;;;;;4959230;28;20158;-89
2023/03/14 01:51:02;;;;;;;15.13;10.67;;;10.60;83.10;;;;;;4959143;28;20202;-89
2023/03/14 01:53:28;;;;;;;14.23;10.20;;;10.50;83.80;;;;;;4976394;28;20191;-89
2023/03/14 01:55:58;;;;;;;13.77;10.57;;;10.50;83.50;;;;;;4976388;28;20175;-89
2023/03/14 01:58:27;;;;;;;15.83;10.00;;;10.60;83.40;;;;;;4976885;28;20185;-89
2023/03/14 02:00:55;;;;;;;18.93;10.57;;;10.50;83.60;;;;;;4976239;28;20198;-89
2023/03/14 02:03:23;;;;;;;17.63;10.20;;;10.50;83.80;;;;;;4958872;28;20186;-89
2023/03/14 02:05:49;;;;;;;18.60;10.57;;;10.40;84.10;;;;;;4976257;28;20175;-89
2023/03/14 02:08:18;;;;;;;18.77;10.93;;;10.40;84.10;;;;;;4976130;28;20189;-89
2023/03/14 02:10:46;;;;;;;16.30;10.40;;;10.40;84.00;;;;;;4976192;28;20202;-89
2023/03/14 02:13:13;;;;;;;14.83;10.60;;;10.40;84.30;;;;;;4976550;28;20183;-89
2023/03/14 02:15:39;;;;;;;17.40;11.37;;;10.40;84.20;;;;;;4959237;28;20175;-89
2023/03/14 02:18:06;;;;;;;14.17;10.60;;;10.40;84.00;;;;;;4975987;28;20175;-89
2023/03/14 02:20:50;;;;;;;11.30;10.03;;;10.40;84.00;;;;;;4957976;28;20627;-89
2023/03/14 02:23:20;;;;;;;13.07;10.80;;;10.40;84.40;;;;;;4958601;28;20174;-89
2023/03/14 02:26:00;;;;;;;15.00;11.23;;;10.40;84.60;;;;;;4976399;28;20183;-89
2023/03/14 02:28:26;;;;;;;13.20;11.17;;;10.40;85.00;;;;;;4958690;28;20167;-89
2023/03/14 02:30:51;;;;;;;16.60;12.10;;;10.30;85.40;;;;;;4976165;28;20667;-89
2023/03/14 02:33:19;;;;;;;15.13;11.53;;;10.40;85.70;;;;;;4975708;28;20187;-89
2023/03/14 02:35:57;;;;;;;15.97;12.37;;;10.30;86.00;;;;;;4975668;28;20175;-89
2023/03/14 02:38:33;;;;;;;17.77;12.47;;;10.30;86.10;;;;;;4959230;28;20166;-89
2023/03/14 02:40:58;;;;;;;18.67;12.70;;;10.40;86.30;;;;;;4975505;28;20217;-89
2023/03/14 02:43:24;;;;;;;17.07;11.43;;;10.30;86.50;;;;;;4975494;28;20701;-89
2023/03/14 02:45:51;;;;;;;20.17;13.63;;;10.40;86.70;;;;;;4958242;28;20179;-89
2023/03/14 02:48:27;;;;;;;14.30;13.00;;;10.40;86.50;;;;;;4958500;28;20182;-89
2023/03/14 02:50:57;;;;;;;19.73;13.60;;;10.40;86.70;;;;;;4975633;28;20265;-89
2023/03/14 02:53:34;;;;;;;16.13;13.90;;;10.40;86.70;;;;;;4958477;28;20203;-89
2023/03/14 02:56:00;;;;;;;17.33;14.10;;;10.40;86.80;;;;;;4958042;28;20664;-89
2023/03/14 02:58:26;;;;;;;14.47;13.30;;;10.50;86.80;;;;;;4957893;28;20214;-89
2023/03/14 03:00:52;;;;;;;14.87;13.43;;;10.50;86.60;;;;;;4975155;28;20206;-89
2023/03/14 03:03:18;;;;;;;18.37;13.50;;;10.60;86.30;;;;;;4958081;28;20175;-89
2023/03/14 03:05:48;;;;;;;15.70;13.53;;;10.60;86.30;;;;;;4957781;28;20175;-89
2023/03/14 03:08:14;;;;;;;16.40;13.63;;;10.60;86.40;;;;;;4975110;28;20170;-89
2023/03/14 03:10:39;;;;;;;20.63;14.03;;;10.60;86.20;;;;;;4958109;28;20186;-89
2023/03/14 03:13:05;;;;;;;19.07;13.10;;;10.70;86.10;;;;;;4957684;28;20277;-88
2023/03/14 03:15:30;;;;;;;13.63;12.47;;;10.70;86.00;;;;;;4974975;28;20221;-89
2023/03/14 03:17:56;;;;;;;12.90;11.70;;;10.60;86.30;;;;;;4957876;28;20210;-89
2023/03/14 03:20:21;;;;;;;19.73;12.93;;;10.70;86.20;;;;;;4957592;28;20206;-89
2023/03/14 03:22:48;;;;;;;16.57;11.50;;;10.60;86.20;;;;;;4974828;28;20250;-89
2023/03/14 03:25:14;;;;;;;19.00;13.77;;;10.70;86.00;;;;;;4957483;28;20199;-89
2023/03/14 03:27:39;;;;;;;13.43;12.30;;;10.70;86.20;;;;;;4957515;28;20281;-89
2023/03/14 03:30:06;;;;;;;14.80;12.87;;;10.70;86.10;;;;;;4974763;28;20695;-89
2023/03/14 03:32:32;;;;;;;15.20;13.00;;;10.70;86.10;;;;;;4956543;28;20681;-89
2023/03/14 03:34:57;;;;;;;13.33;11.80;;;10.70;86.20;;;;;;4974849;28;20199;-88
2023/03/14 03:37:23;;;;;;;15.33;12.67;;;10.70;85.90;;;;;;4957618;28;20175;-89
2023/03/14 03:39:52;;;;;;;15.53;13.83;;;10.80;85.80;;;;;;4957314;28;20265;-89
2023/03/14 03:42:18;;;;;;;16.33;14.63;;;10.70;85.80;;;;;;4974427;28;20665;-89
2023/03/14 03:44:44;;;;;;;16.30;14.60;;;10.60;86.00;;;;;;4974458;28;20223;-89
2023/03/14 03:47:10;;;;;;;18.33;13.90;;;10.50;86.40;;;;;;4974445;28;20210;-89
2023/03/14 03:49:35;;;;;;;14.90;13.37;;;10.50;86.20;;;;;;4974482;28;20206;-89
2023/03/14 03:52:01;;;;;;;16.33;14.73;;;10.50;86.40;;;;;;4957171;28;20187;-89
2023/03/14 03:54:26;;;;;;;15.00;13.70;;;10.50;86.40;;;;;;4974604;28;20198;-89
2023/03/14 03:56:52;;;;;;;14.37;12.97;;;10.70;85.80;;;;;;4974466;28;20189;-89
2023/03/14 03:59:18;;;;;;;13.80;12.30;;;10.70;85.60;;;;;;4957923;28;20235;-89
2023/03/14 04:01:44;;;;;;;15.43;12.53;;;10.80;85.50;;;;;;4974565;28;20633;-89
2023/03/14 04:04:09;;;;;;;14.23;12.73;;;10.80;85.70;;;;;;4957267;28;20195;-89
2023/03/14 04:06:35;;;;;;;14.50;13.13;;;10.70;86.00;;;;;;4974303;28;20194;-89
2023/03/14 04:09:00;;;;;;;16.30;13.13;;;10.70;86.50;;;;;;4974302;28;20258;-89
2023/03/14 04:11:26;;;;;;;13.97;12.53;;;10.70;86.70;;;;;;4974380;28;20178;-89
2023/03/14 04:13:52;;;;;;;15.77;13.87;;;10.80;86.00;;;;;;4974250;28;20218;-89
2023/03/14 04:16:20;;;;;;;13.63;12.33;;;10.60;87.00;;;;;;4974303;28;20725;-89
2023/03/14 04:18:46;;;;;;;16.93;14.07;;;10.20;87.40;;;;;;4956961;28;20611;-90
2023/03/14 04:21:11;;;;;;;15.53;14.20;;;9.80;88.90;;;;;;4974172;28;20202;-90
2023/03/14 04:23:37;;;;;;;15.20;13.60;;;9.60;89.90;;;;;;4974007;28;20195;-91
2023/03/14 04:26:02;;;;;;;15.70;14.43;;;9.40;90.10;;;;;;4956873;28;20274;-90
2023/03/14 04:28:28;;;;;;;16.30;14.53;;;9.30;90.60;;;;;;4974083;28;20237;-91
2023/03/14 04:30:53;;;;;;;15.17;13.90;;;9.20;90.90;;;;;;4974144;28;20185;-91
2023/03/14 04:33:19;;;;;;;15.13;13.90;;;9.10;91.10;;;;;;4974177;28;20211;-91
2023/03/14 04:35:45;;;;;;;14.80;13.53;;;9.00;91.20;;;;;;4956850;28;20187;-90
2023/03/14 04:38:12;;;;;;;14.33;13.17;;;9.00;91.00;;;;;;4974125;28;20650;-90
2023/03/14 04:40:38;;;;;;;14.30;13.13;;;9.00;90.80;;;;;;4974140;28;20290;-91
2023/03/14 04:43:04;;;;;;;15.50;14.13;;;9.00;90.70;;;;;;4957137;28;20202;-90
2023/03/14 04:45:29;;;;;;;15.50;14.20;;;9.00;90.90;;;;;;4977497;28;20175;-91
2023/03/14 04:47:55;;;;;;;15.63;13.93;;;8.90;91.10;;;;;;4960284;28;20562;-91
2023/03/14 04:50:20;;;;;;;14.90;13.70;;;8.80;91.30;;;;;;4960418;28;20183;-91
2023/03/14 04:52:46;;;;;;;14.97;13.67;;;8.80;91.30;;;;;;4960198;28;20182;-91
2023/03/14 04:55:12;;;;;;;15.83;14.30;;;8.80;91.50;;;;;;4960298;28;20210;-91
2023/03/14 04:57:37;;;;;;;15.60;13.83;;;8.70;91.70;;;;;;4960125;28;20214;-91
2023/03/14 05:00:07;;;;;;;16.17;14.90;;;8.70;91.80;;;;;;4977656;28;20210;-91
2023/03/14 05:02:33;;;;;;;16.77;15.27;;;8.70;91.90;;;;;;4960053;28;20269;-91
2023/03/14 05:04:58;;;;;;;17.77;14.17;;;8.80;92.00;;;;;;4960499;28;20314;-91
2023/03/14 05:07:24;;;;;;;14.53;13.13;;;8.80;92.10;;;;;;4960001;28;20198;-91
2023/03/14 05:09:49;;;;;;;15.90;14.57;;;8.80;91.90;;;;;;4959908;28;20633;-91
2023/03/14 05:12:15;;;;;;;20.57;14.87;;;8.80;92.10;;;;;;4959975;28;20183;-91
2023/03/14 05:14:40;;;;;;;16.23;15.10;;;8.70;92.10;;;;;;4959867;28;20229;-91
2023/03/14 05:17:06;;;;;;;16.77;15.37;;;8.70;92.40;;;;;;4959874;28;20183;-91
2023/03/14 05:19:31;;;;;;;17.97;16.30;;;8.70;92.60;;;;;;4977264;28;20210;-91
2023/03/14 05:21:57;;;;;;;17.93;16.70;;;8.60;92.80;;;;;;4960098;28;20171;-91
2023/03/14 05:24:23;;;;;;;18.17;16.80;;;8.70;92.90;;;;;;4977252;28;20278;-88
2023/03/14 05:26:48;;;;;;;19.80;17.97;;;8.70;92.90;;;;;;4977032;28;20656;-91
2023/03/14 05:29:14;;;;;;;20.27;18.63;;;8.60;93.00;;;;;;4977184;28;20261;-91
2023/03/14 05:31:39;;;;;;;20.53;18.77;;;8.70;93.10;;;;;;4959634;28;20225;-91
2023/03/14 05:34:05;;;;;;;22.47;20.67;;;8.70;93.20;;;;;;4976783;28;20199;-91
2023/03/14 05:36:30;;;;;;;21.93;20.27;;;8.70;93.20;;;;;;4959542;28;20183;-91
2023/03/14 05:38:56;;;;;;;22.73;20.97;;;8.70;93.20;;;;;;4976722;28;20183;-91
2023/03/14 05:41:22;;;;;;;21.73;20.03;;;8.70;93.10;;;;;;4976675;28;20617;-91
2023/03/14 05:43:47;;;;;;;22.10;20.47;;;8.70;93.10;;;;;;4959315;28;20227;-91
2023/03/14 05:46:13;;;;;;;23.90;22.10;;;8.70;93.00;;;;;;4976654;28;20182;-91
2023/03/14 05:48:38;;;;;;;23.20;20.87;;;8.70;93.00;;;;;;4959352;28;20183;-91
2023/03/14 05:51:04;;;;;;;25.53;23.17;;;8.80;93.00;;;;;;4959356;28;20195;-91
2023/03/14 05:53:30;;;;;;;26.13;23.70;;;8.70;93.00;;;;;;4976667;28;20198;-91
2023/03/14 05:55:56;;;;;;;23.77;21.90;;;8.80;93.10;;;;;;4958221;28;20189;-91
2023/03/14 05:58:22;;;;;;;24.60;22.57;;;8.70;93.10;;;;;;4976290;28;20182;-91
2023/03/14 06:00:48;;;;;;;27.13;24.93;;;8.70;93.10;;;;;;4976449;28;20195;-91
2023/03/14 06:03:14;;;;;;;27.60;25.20;;;8.70;93.30;;;;;;4976415;28;20229;-91
2023/03/14 06:05:39;;;;;;;28.57;26.47;;;8.70;93.20;;;;;;4958933;28;20684;-91
2023/03/14 06:08:05;;;;;;;30.10;27.50;;;8.80;93.20;;;;;;4959036;28;20652;-91
2023/03/14 06:10:31;;;;;;;26.37;24.37;;;8.80;93.00;;;;;;4976142;28;20598;-90
2023/03/14 06:12:56;;;;;;;25.87;23.87;;;8.80;92.70;;;;;;4976341;28;20178;-91
2023/03/14 06:15:22;;;;;;;24.93;22.87;;;8.90;92.40;;;;;;4958898;28;20206;-91
2023/03/14 06:17:47;;;;;;;23.30;21.40;;;8.90;92.10;;;;;;4976046;28;20183;-91
2023/03/14 06:20:13;;;;;;;23.53;21.83;;;9.00;91.70;;;;;;4976191;28;20237;-91
2023/03/14 06:22:40;;;;;;;21.77;19.87;;;9.00;91.40;;;;;;4959528;28;20205;-91
2023/03/14 06:25:06;;;;;;;20.30;18.63;;;9.00;91.10;;;;;;4958627;28;20203;-90
2023/03/14 06:27:32;;;;;;;19.60;18.20;;;9.10;90.70;;;;;;4958605;28;20562;-91
2023/03/14 06:29:58;;;;;;;20.10;18.23;;;9.20;90.30;;;;;;4975829;28;20175;-91
2023/03/14 06:32:23;;;;;;;21.17;19.50;;;9.20;90.30;;;;;;4975780;28;20182;-91
2023/03/14 06:34:49;;;;;;;19.73;18.33;;;9.20;90.40;;;;;;4958444;28;20205;-91
2023/03/14 06:37:14;;;;;;;18.93;17.17;;;9.30;90.00;;;;;;4958383;28;20183;-91
2023/03/14 06:39:40;;;;;;;19.87;18.00;;;9.40;89.40;;;;;;4975510;28;20206;-91
2023/03/14 06:42:05;;;;;;;19.07;17.77;;;9.30;89.70;;;;;;4975478;28;20664;-91
2023/03/14 06:44:31;;;;;;;20.33;18.60;;;9.30;89.90;;;;;;4958291;28;20229;-91
2023/03/14 06:46:57;;;;;;;20.03;18.30;;;9.20;90.00;;;;;;4976560;28;20183;-92
2023/03/14 06:49:22;;;;;;;19.77;18.13;;;9.20;90.00;;;;;;4960268;28;20181;-92
2023/03/14 06:51:48;;;;;;;21.53;19.63;;;9.30;89.90;;;;;;4959732;28;20209;-92
2023/03/14 06:54:13;;;;;;;20.30;18.70;;;9.30;90.00;;;;;;4960073;28;20236;-92
2023/03/14 06:56:39;;;;;;;20.00;18.60;;;9.30;90.10;;;;;;4959516;28;20588;-92
2023/03/14 06:59:05;;;;;;;21.13;19.60;;;9.40;90.10;;;;;;4959662;28;20185;-92
2023/03/14 07:01:32;;;;;;;20.40;19.00;;;9.40;90.40;;;;;;4959678;28;20698;-92
2023/03/14 07:03:58;;;;;;;21.57;19.97;;;9.50;90.50;;;;;;4959218;28;20244;-92
2023/03/14 07:06:24;;;;;;;23.07;20.77;;;9.50;90.40;;;;;;4959333;28;20624;-92
2023/03/14 07:08:50;;;;;;;25.43;23.07;;;9.40;90.50;;;;;;4959094;28;20189;-90
2023/03/14 07:11:16;;;;;;;22.13;20.33;;;9.40;90.70;;;;;;4958143;28;20280;-89
2023/03/14 07:13:41;;;;;;;22.63;20.97;;;9.50;90.40;;;;;;4958219;28;20206;-89
2023/03/14 07:16:07;;;;;;;23.30;21.20;;;9.60;90.20;;;;;;4959334;28;20187;-87
2023/03/14 07:18:33;;;;;;;19.20;17.63;;;9.60;90.10;;;;;;4975090;28;20601;-89
2023/03/14 07:20:59;;;;;;;20.60;18.90;;;9.60;89.30;;;;;;4957628;28;20202;-89
2023/03/14 07:23:25;;;;;;;19.30;17.30;;;9.60;89.40;;;;;;4957785;28;20198;-89
2023/03/14 07:25:51;;;;;;;18.60;17.20;;;9.60;88.90;;;;;;4958800;28;20183;-92
2023/03/14 07:28:17;;;;;;;20.20;18.63;;;9.60;88.80;;;;;;4959009;28;20213;-91
2023/03/14 07:30:42;;;;;;;20.70;16.00;;;9.60;88.70;;;;;;4958658;28;20179;-91
2023/03/14 07:33:08;;;;;;;18.23;16.57;;;9.60;88.60;;;;;;4958697;28;20175;-91
2023/03/14 07:35:33;;;;;;;20.03;18.23;;;9.50;88.70;;;;;;4958741;28;20182;-91
2023/03/14 07:37:59;;;;;;;18.67;16.60;;;9.50;88.80;;;;;;4958910;28;20269;-91
2023/03/14 07:40:24;;;;;;;19.53;18.03;;;9.60;88.50;;;;;;4958495;28;20246;-92
2023/03/14 07:42:50;;;;;;;18.07;16.50;;;9.50;88.90;;;;;;4959061;28;20197;-91
2023/03/14 07:45:15;;;;;;;19.90;18.10;;;9.60;88.90;;;;;;4958428;28;20281;-91
2023/03/14 07:47:41;;;;;;;18.47;16.83;;;9.70;89.00;;;;;;4959638;28;20663;-91
2023/03/14 07:50:07;;;;;;;19.63;18.20;;;9.90;89.00;;;;;;4961128;28;20720;-91
2023/03/14 07:52:33;;;;;;;19.40;17.63;;;10.00;88.70;;;;;;4960119;28;20186;-91
2023/03/14 07:54:59;;;;;;;20.40;18.40;;;10.10;88.30;;;;;;4960122;28;20220;-92
2023/03/14 07:57:24;;;;;;;20.07;18.40;;;10.10;88.40;;;;;;4962176;28;20190;-92
2023/03/14 07:59:50;;;;;;;18.53;17.27;;;10.00;88.30;;;;;;4960656;28;20194;-92
2023/03/14 08:02:17;;;;;;;18.57;16.93;;;10.00;88.10;;;;;;4959508;28;20182;-91
2023/03/14 08:04:43;;;;;;;18.57;17.07;;;9.90;88.00;;;;;;4959953;28;20217;-91
2023/03/14 08:07:08;;;;;;;19.13;17.40;;;9.90;87.80;;;;;;4960421;28;20257;-91
2023/03/14 08:09:34;;;;;;;21.80;17.80;;;9.90;88.10;;;;;;4958146;28;20657;-91
2023/03/14 08:12:00;;;;;;;20.83;18.80;;;9.80;88.30;;;;;;4958484;28;20182;-91
2023/03/14 08:14:25;;;;;;;18.07;16.67;;;9.80;88.80;;;;;;4959094;28;20206;-91
2023/03/14 08:16:51;;;;;;;16.23;15.13;;;9.80;88.60;;;;;;4957989;28;20594;-91
2023/03/14 08:19:17;;;;;;;15.97;14.70;;;9.80;88.00;;;;;;4959701;28;20221;-91
2023/03/14 08:21:42;;;;;;;15.13;14.10;;;9.80;88.10;;;;;;4962240;28;20181;-91
2023/03/14 08:24:08;;;;;;;17.10;15.90;;;9.80;88.40;;;;;;4961776;28;20714;-91
2023/03/14 08:26:33;;;;;;;17.57;16.23;;;9.80;88.90;;;;;;4962170;28;20553;-91
2023/03/14 08:28:59;;;;;;;19.57;18.07;;;9.70;89.40;;;;;;4962144;28;20171;-91
2023/03/14 08:31:24;;;;;;;19.50;18.00;;;9.60;89.80;;;;;;4962166;28;20867;-91
2023/03/14 08:33:51;;;;;;;19.30;17.73;;;9.70;89.70;;;;;;4962088;28;20205;-90
2023/03/14 08:36:18;;;;;;;21.20;19.40;;;9.70;89.70;;;;;;4961977;28;20183;-91
2023/03/14 08:38:43;;;;;;;19.57;18.00;;;9.70;89.90;;;;;;4962276;28;20667;-91
2023/03/14 08:41:10;;;;;;;21.37;19.27;;;9.70;89.60;;;;;;4961909;28;20214;-91
2023/03/14 08:43:38;;;;;;;22.67;20.90;;;9.60;90.10;;;;;;4962290;28;20297;-92
2023/03/14 08:46:04;;;;;;;21.70;20.03;;;9.60;90.50;;;;;;4962316;28;20174;-92
2023/03/14 08:48:30;;;;;;;25.47;23.27;;;9.40;90.70;;;;;;4961997;28;20614;-91
2023/03/14 08:51:25;;;;;;;25.57;23.30;;;9.50;91.10;;;;;;4962818;28;20189;-92
2023/03/14 08:53:51;;;;;;;25.20;23.60;;;9.40;91.30;;;;;;4942307;28;20214;-92
2023/03/14 08:56:17;;;;;;;27.90;25.60;;;9.40;91.90;;;;;;4961972;28;20186;-92
2023/03/14 08:58:42;;;;;;;29.27;27.27;;;9.30;92.10;;;;;;4961919;28;20211;-92
2023/03/14 09:01:10;;;;;;;30.17;28.17;;;9.30;92.40;;;;;;4974687;28;20215;-92
2023/03/14 09:03:36;;;;;;;28.50;26.27;;;9.30;92.50;;;;;;4965550;28;20260;-93
2023/03/14 09:06:04;;;;;;;29.53;27.47;;;9.30;92.50;;;;;;4967623;28;20186;-92
2023/03/14 09:08:29;;;;;;;29.70;27.27;;;9.40;92.60;;;;;;4963426;28;20186;-91
2023/03/14 09:10:55;;;;;;;29.43;27.20;;;9.40;92.50;;;;;;4963015;28;20183;-92
2023/03/14 09:13:20;;;;;;;29.30;26.83;;;9.40;92.20;;;;;;4961229;28;20186;-91
2023/03/14 09:15:54;;;;;;;28.77;26.83;;;9.30;92.10;;;;;;4963137;28;20186;-92
2023/03/14 09:18:21;;;;;;;28.03;25.50;;;9.00;91.30;;;;;;4962936;28;20175;-92
2023/03/14 09:20:46;;;;;;;30.40;28.30;;;8.40;90.90;;;;;;4961482;28;20293;-92
2023/03/14 09:23:12;;;;;;;33.07;30.87;;;7.90;90.90;;;;;;4965273;28;20206;-92
2023/03/14 09:25:38;;;;;;;35.97;33.53;;;7.50;91.10;;;;;;4960259;28;20178;-92
2023/03/14 09:28:04;;;;;;;35.07;32.40;;;7.50;91.60;;;;;;4961246;28;20175;-91
2023/03/14 09:30:29;;;;;;;33.17;30.77;;;7.50;91.80;;;;;;4960672;28;20189;-91
2023/03/14 09:32:56;;;;;;;30.53;28.20;;;7.20;91.40;;;;;;4961067;28;20187;-91
2023/03/14 09:35:22;;;;;;;32.50;30.10;;;7.20;91.40;;;;;;4961137;28;20638;-91
2023/03/14 09:37:48;;;;;;;31.43;28.73;;;7.00;91.30;;;;;;4960314;28;20179;-92
2023/03/14 09:40:16;;;;;;;30.30;28.17;;;6.90;91.50;;;;;;4960969;28;20198;-91
2023/03/14 09:42:42;;;;;;;26.90;25.10;;;6.80;90.90;;;;;;4962066;28;20245;-91
2023/03/14 09:45:16;;;;;;;24.40;22.60;;;6.90;91.20;;;;;;4961828;28;20191;-88
2023/03/14 09:47:44;;;;;;;22.57;20.87;;;6.70;90.50;;;;;;4978964;28;20201;-92
2023/03/14 09:50:14;;;;;;;25.27;23.50;;;6.60;90.10;;;;;;4961960;28;20163;-92
2023/03/14 09:53:02;;;;;;;22.70;21.23;;;6.40;90.00;;;;;;4965653;28;20182;-91
2023/03/14 09:55:29;;;;;;;23.10;21.70;;;6.40;90.00;;;;;;4967975;28;20206;-92
2023/03/14 09:57:59;;;;;;;23.57;21.73;;;6.30;89.70;;;;;;4966066;28;20195;-91
2023/03/14 10:00:30;;;;;;;24.33;22.63;;;6.20;89.70;;;;;;4969503;28;20207;-92
2023/03/14 10:03:23;;;;;;;21.23;20.03;;;6.20;89.70;;;;;;4970324;28;20248;-92
2023/03/14 10:05:48;;;;;;;21.57;20.27;;;6.00;89.40;;;;;;4974351;28;20174;-93
2023/03/14 10:08:14;;;;;;;21.43;20.03;;;5.90;89.40;;;;;;4973670;28;20155;-96
2023/03/14 10:10:40;;;;;;;21.40;19.97;;;5.90;89.40;;;;;;4973946;28;20171;-92
2023/03/14 10:13:21;;;;;;;20.90;19.60;;;5.80;89.00;;;;;;4974555;28;20194;-93
2023/03/14 10:16:01;;;;;;;20.00;18.80;;;5.80;88.90;;;;;;4974468;28;20230;-93
2023/03/14 10:18:30;;;;;;;18.10;17.10;;;5.80;88.60;;;;;;4973712;28;20269;-92
2023/03/14 10:21:02;;;;;;;17.23;16.33;;;5.50;88.30;;;;;;4970235;28;20210;-94
2023/03/14 10:23:31;;;;;;;18.13;17.00;;;5.50;88.10;;;;;;4972189;28;20202;-91
2023/03/14 10:26:05;;;;;;;17.40;16.40;;;5.50;88.10;;;;;;4965301;28;20186;-91
2023/03/14 10:28:37;;;;;;;18.00;16.90;;;5.40;88.00;;;;;;4959932;28;20193;-88
2023/03/14 10:31:02;;;;;;;18.67;17.57;;;5.30;87.80;;;;;;4976722;28;20174;-88
2023/03/14 10:33:30;;;;;;;18.00;17.00;;;5.40;87.90;;;;;;4959180;28;20207;-88
2023/03/14 10:36:15;;;;;;;17.73;16.73;;;5.30;88.00;;;;;;4959669;28;20285;-91
2023/03/14 10:38:41;;;;;;;18.00;16.70;;;5.30;87.80;;;;;;4958934;28;20197;-91
2023/03/14 10:41:17;;;;;;;17.40;16.30;;;5.30;87.90;;;;;;4958627;28;20229;-91
2023/03/14 10:43:43;;;;;;;15.10;14.00;;;5.20;87.80;;;;;;4959873;28;20734;-91
2023/03/14 10:46:16;;;;;;;15.63;14.43;;;5.20;87.80;;;;;;4960468;28;20186;-92
2023/03/14 10:48:42;;;;;;;16.47;15.27;;;5.30;87.80;;;;;;4965818;28;20177;-92
2023/03/14 10:51:18;;;;;;;16.87;15.77;;;5.40;87.80;;;;;;4961661;28;20277;-91
2023/03/14 10:53:46;;;;;;;14.73;13.17;;;5.60;88.00;;;;;;4960571;28;20707;-91
2023/03/14 10:56:20;;;;;;;13.53;12.67;;;5.50;87.50;;;;;;4961291;28;20209;-91
2023/03/14 10:58:48;;;;;;;15.40;14.13;;;5.40;86.70;;;;;;4962204;28;20210;-92
2023/03/14 11:01:34;;;;;;;15.57;14.37;;;5.30;86.50;;;;;;4963121;28;20207;-91
2023/03/14 11:04:21;;;;;;;15.17;13.93;;;5.40;86.40;;;;;;4962668;28;20661;-91
2023/03/14 11:07:00;;;;;;;15.87;14.40;;;5.50;86.30;;;;;;4963239;28;20186;-91
2023/03/14 11:09:46;;;;;;;16.97;15.67;;;5.50;85.90;;;;;;4961470;28;20178;-91
2023/03/14 11:12:37;;;;;;;15.83;14.73;;;5.40;85.70;;;;;;4961862;28;20205;-91
2023/03/14 11:15:52;;;;;;;14.90;13.70;;;5.50;85.90;;;;;;4950288;28;20578;-91
2023/03/14 11:18:27;;;;;;;14.70;13.50;;;5.50;85.40;;;;;;4923568;28;20190;-92
2023/03/14 11:21:23;;;;;;;15.17;13.83;;;5.50;85.40;;;;;;4963031;28;20213;-91
2023/03/14 11:24:16;;;;;;;14.13;12.93;;;5.50;85.50;;;;;;4962241;28;20202;-91
2023/03/14 11:27:03;;;;;;;13.80;12.70;;;5.50;85.30;;;;;;4963047;28;20174;-92
2023/03/14 11:30:02;;;;;;;12.93;11.70;;;5.50;84.90;;;;;;4962907;28;20221;-92
2023/03/14 11:32:32;;;;;;;14.87;13.10;;;5.30;83.60;;;;;;4963498;28;20217;-92
2023/03/14 11:35:02;;;;;;;15.20;12.63;;;5.30;83.90;;;;;;4964868;28;20234;-91
2023/03/14 11:37:36;;;;;;;15.70;13.07;;;5.30;83.70;;;;;;4964407;28;20205;-92
2023/03/14 11:40:18;;;;;;;14.03;12.93;;;5.30;83.50;;;;;;4965160;28;20738;-92
2023/03/14 11:42:49;;;;;;;15.10;13.70;;;5.30;83.30;;;;;;4966809;28;20193;-92
2023/03/14 11:45:25;;;;;;;15.10;13.40;;;5.30;83.70;;;;;;4980665;23;20237;-91
2023/03/14 11:47:59;;;;;;;20.50;15.00;;;5.40;84.10;;;;;;4957502;28;20655;-91
2023/03/14 11:50:29;;;;;;;14.30;13.03;;;5.50;84.00;;;;;;4957889;28;20269;-92
2023/03/14 11:53:01;;;;;;;18.00;14.13;;;5.40;82.60;;;;;;4957359;28;20178;-90
2023/03/14 11:55:36;;;;;;;22.37;15.07;;;5.60;82.50;;;;;;4938583;29;20167;-91
2023/03/14 11:58:12;;;;;;;20.33;15.90;;;5.70;83.30;;;;;;4940934;29;20178;-92
2023/03/14 12:00:39;;;;;;;15.90;13.77;;;5.60;82.60;;;;;;4939682;29;20192;-91
2023/03/14 12:03:44;;;;;;;17.10;13.80;;;5.60;82.10;;;;;;4939330;29;20178;-91
2023/03/14 12:06:48;;;;;;;21.87;14.40;;;5.70;83.00;;;;;;4925206;29;20191;-90
2023/03/14 12:09:16;;;;;;;20.83;13.47;;;5.60;82.30;;;;;;4938770;29;20194;-91
2023/03/14 12:11:52;;;;;;;16.80;12.33;;;5.70;83.00;;;;;;4938274;29;20202;-92
2023/03/14 12:14:33;;;;;;;18.17;12.50;;;5.80;83.10;;;;;;4940375;29;20226;-90
2023/03/14 12:17:06;;;;;;;23.83;12.80;;;5.80;83.30;;;;;;4948890;28;20166;-92
2023/03/14 12:19:42;;;;;;;17.23;13.80;;;5.80;83.30;;;;;;4945129;29;20223;-92
2023/03/14 12:22:24;;;;;;;21.20;14.83;;;5.80;83.50;;;;;;4944218;29;20171;-91
2023/03/14 12:24:57;;;;;;;19.47;14.07;;;5.50;84.20;;;;;;4938226;29;20203;-90
2023/03/14 12:27:41;;;;;;;29.03;17.40;;;5.30;84.10;;;;;;4939044;29;20175;-91
2023/03/14 12:30:35;;;;;;;27.43;13.67;;;5.20;83.80;;;;;;4938303;29;20218;-88
2023/03/14 12:33:09;;;;;;;37.73;15.77;;;5.20;83.40;;;;;;4938797;29;20175;-89
2023/03/14 12:35:35;;;;;;;36.03;14.80;;;5.20;82.20;;;;;;4937846;29;20185;-89
2023/03/14 12:38:04;;;;;;;35.73;14.70;;;5.30;80.70;;;;;;4937954;29;20183;-89
2023/03/14 12:40:37;;;;;;;31.60;16.60;;;5.50;80.60;;;;;;4938520;29;20207;-90